CDT,Max TemperatureF,Mean TemperatureF,Min TemperatureF,Max Dew PointF,MeanDew PointF,Min DewpointF,Max Humidity, Mean Humidity, Min Humidity, Max Sea Level PressureIn, Mean Sea Level PressureIn, Min Sea Level PressureIn, Max VisibilityMiles, Mean VisibilityMiles, Min VisibilityMiles, Max Wind SpeedMPH, Mean Wind SpeedMPH, Max Gust SpeedMPH,PrecipitationIn, CloudCover, Events, WindDirDegrees
2013-10-1,84,68,53,70,63,53,100,89,51,29.97,29.92,29.85,10,6,0,10,2,20,0.00,4,Fog,165
2013-10-2,86,72,59,72,66,59,100,90,53,30.01,29.94,29.84,10,5,0,12,2,17,0.01,4,Fog,165
2013-10-3,88,77,68,72,69,67,96,80,61,29.89,29.81,29.73,10,10,10,15,8,24,0.00,3,,167
2013-10-4,88,79,71,71,69,66,94,76,53,29.90,29.81,29.75,10,10,10,17,8,28,0.00,2,Thunderstorm,177
2013-10-5,64,58,46,64,49,39,100,79,40,30.11,30.01,29.91,10,8,0,10,4,24,0.58,4,Fog-Rain-Thunderstorm,345
2013-10-6,68,56,45,48,42,37,100,68,42,30.05,30.02,29.99,10,10,10,9,4,17,0.00,0,,273
2013-10-7,73,56,39,52,42,38,97,70,30,30.19,30.12,30.05,10,10,10,4,0,,0.00,0,,170
2013-10-8,75,58,42,51,47,42,100,76,41,30.14,30.08,30.02,10,10,7,14,3,21,0.01,0,,161
2013-10-9,78,60,44,57,50,44,100,86,47,30.09,30.04,30.00,10,6,0,10,2,,0.00,0,Fog,165
2013-10-10,80,62,46,60,54,47,100,78,48,30.07,29.98,29.85,10,8,2,14,3,23,0.00,0,,157
2013-10-11,82,68,57,67,62,56,93,79,62,29.86,29.82,29.76,10,10,10,13,7,22,0.00,2,,173
2013-10-12,73,62,50,68,51,45,100,72,41,30.19,30.04,29.84,10,10,6,16,6,24,0.01,1,Rain-Thunderstorm,24
2013-10-13,73,64,55,54,50,45,83,64,50,30.32,30.25,30.19,10,10,10,13,6,18,0.00,6,,48
2013-10-14,64,60,55,64,58,53,100,94,72,30.19,30.05,29.88,10,6,1,13,5,26,1.21,7,Rain,155
2013-10-15,64,57,50,65,53,43,100,87,58,30.12,30.00,29.87,10,8,1,13,4,16,0.42,4,Rain,8
2013-10-16,57,48,39,47,42,38,97,80,56,30.19,30.12,30.07,10,10,7,5,1,,0.01,2,Rain,320
2013-10-17,66,52,39,49,43,38,100,81,45,30.09,30.04,29.97,10,9,2,9,2,,0.00,0,,243
2013-10-18,51,44,37,45,41,38,100,95,74,30.19,30.11,30.03,10,9,2,17,5,22,0.34,7,Rain,9
2013-10-19,64,47,30,42,37,31,100,77,35,30.18,30.09,30.00,10,10,8,13,3,17,0.01,0,,218
2013-10-20,72,53,35,47,41,35,100,73,30,29.99,29.92,29.83,10,10,9,13,4,22,0.00,1,,187
2013-10-21,57,47,37,47,40,34,100,75,44,30.15,30.07,29.94,10,10,10,16,3,18,0.00,2,,22
2013-10-22,73,55,37,45,41,36,97,68,33,30.10,30.04,29.97,10,10,9,10,3,16,0.00,2,,252
2013-10-23,64,50,35,46,40,35,100,79,43,30.21,30.12,30.02,10,10,9,8,2,,0.00,0,,132
2013-10-24,55,44,34,42,35,28,100,73,38,30.44,30.32,30.10,10,10,10,18,5,23,0.00,0,,23
2013-10-25,60,45,30,39,33,29,96,70,35,30.51,30.39,30.21,10,10,10,10,3,16,0.00,0,,163
2013-10-26,66,54,42,52,46,39,97,78,60,30.20,30.16,30.11,10,10,5,7,2,,0.00,2,,191
2013-10-27,66,48,30,41,35,30,100,73,27,30.16,30.09,29.99,10,10,5,6,0,,0.00,0,,150
2013-10-28,69,52,35,57,51,35,100,88,63,30.15,30.08,30.01,10,6,0,12,3,17,0.03,6,Fog-Rain-Thunderstorm,153
2013-10-29,73,66,59,68,63,57,100,94,78,30.07,29.98,29.90,10,7,3,10,6,,0.16,7,Rain-Thunderstorm,163
2013-10-30,73,68,64,68,65,62,100,93,78,29.99,29.87,29.76,10,8,2,20,8,29,0.32,8,Rain-Thunderstorm,173
2013-10-31,64,56,48,63,56,43,100,88,52,29.77,29.65,29.55,10,10,7,9,5,20,0.16,6,Rain,215